Terminal Aerodrome Forecast
Issued by NWS Mt. Holly, NJ

Home | Current Version | Previous Version | Text Only | Print | Product List | Glossary On
Versions: 1 2 3 4 5 6 7 8 9 10 11 12 13 14 15 16 17 18 19 20 21
000
FTUS41 KPHI 300500
TAFPHL
TAF
KPHL 300526Z 3006/3112 14005KT P6SM SCT040
     FM301400 19005KT P6SM SCT040 BKN100
     FM301800 20010KT P6SM BKN050
     FM310200 17005KT P6SM SCT050 BKN150
     FM310900 20005KT P6SM SCT020 BKN100=

USA.gov is the U.S. government's official web portal to all federal, state and local government web resources and services.